createdAt,value
2022-12-01T00:00:04.385Z,143.40
2022-12-01T00:03:11.445Z,136.00
2022-12-01T00:06:18.358Z,143.60
2022-12-01T00:09:25.620Z,140.90
2022-12-01T00:12:32.267Z,144.40
2022-12-01T00:15:39.624Z,154.00
2022-12-01T00:18:47.068Z,151.50
2022-12-01T00:21:54.944Z,151.30
2022-12-01T00:25:01.848Z,142.00
2022-12-01T00:28:08.668Z,139.70
2022-12-01T00:31:15.810Z,143.00
2022-12-01T00:34:22.653Z,149.00
2022-12-01T00:37:29.421Z,148.40
2022-12-01T00:40:36.420Z,143.00
2022-12-01T00:43:42.881Z,152.10
2022-12-01T00:46:49.949Z,160.70
2022-12-01T00:49:57.051Z,142.40
2022-12-01T00:53:03.523Z,147.30
2022-12-01T00:56:10.726Z,158.30
2022-12-01T00:59:17.791Z,145.20
2022-12-01T01:02:24.285Z,140.60
2022-12-01T01:05:31.491Z,140.00
2022-12-01T01:08:38.717Z,148.60
2022-12-01T01:11:45.244Z,150.00
2022-12-01T01:14:52.452Z,149.60
2022-12-01T01:17:58.964Z,152.50
2022-12-01T01:21:05.855Z,143.40
2022-12-01T01:24:13.205Z,138.30
2022-12-01T01:27:19.727Z,157.00
2022-12-01T01:30:26.997Z,138.40
2022-12-01T01:33:34.175Z,145.30
2022-12-01T01:36:40.663Z,136.80
2022-12-01T01:39:47.976Z,124.00
2022-12-01T01:42:55.388Z,132.40
2022-12-01T01:45:56.101Z,135.20
2022-12-01T01:49:03.455Z,136.70
2022-12-01T01:52:09.898Z,120.50
2022-12-01T01:55:17.307Z,124.90
2022-12-01T01:58:24.278Z,133.30
2022-12-01T02:01:30.832Z,130.60
2022-12-01T02:04:38.390Z,130.10
2022-12-01T02:07:46.279Z,125.40
2022-12-01T02:10:53.401Z,127.30
2022-12-01T02:14:01.220Z,121.40
2022-12-01T02:17:08.707Z,120.40
2022-12-01T02:20:16.071Z,124.80
2022-12-01T02:23:23.741Z,122.80
2022-12-01T02:26:30.511Z,124.10
2022-12-01T02:29:36.962Z,121.50
2022-12-01T02:32:44.154Z,115.80
2022-12-01T02:35:50.953Z,116.60
2022-12-01T02:38:57.753Z,122.40
2022-12-01T02:42:04.581Z,115.50
2022-12-01T02:45:11.776Z,111.70
2022-12-01T02:48:18.674Z,105.00
2022-12-01T02:51:25.394Z,109.30
2022-12-01T02:54:32.725Z,120.20
2022-12-01T02:57:39.115Z,117.50
2022-12-01T03:00:46.226Z,114.50
2022-12-01T03:03:53.385Z,127.30
2022-12-01T03:06:59.801Z,127.30
2022-12-01T03:10:06.957Z,134.50
2022-12-01T03:13:13.896Z,125.50
2022-12-01T03:16:20.717Z,123.00
2022-12-01T03:19:27.448Z,132.10
2022-12-01T03:22:34.228Z,127.10
2022-12-01T03:25:41.090Z,124.60
2022-12-01T03:28:47.889Z,132.40
2022-12-01T03:31:54.883Z,135.70
2022-12-01T03:35:01.750Z,140.60
2022-12-01T03:38:08.299Z,135.40
2022-12-01T03:41:15.451Z,128.40
2022-12-01T03:44:22.314Z,125.60
2022-12-01T03:47:28.932Z,126.60
2022-12-01T03:50:36.463Z,131.00
2022-12-01T03:53:42.923Z,120.90
2022-12-01T03:56:50.264Z,116.00
2022-12-01T03:59:57.633Z,105.30
2022-12-01T04:03:04.403Z,104.00
2022-12-01T04:06:11.707Z,98.40
2022-12-01T04:09:18.241Z,95.70
2022-12-01T04:12:25.153Z,95.80
2022-12-01T04:15:31.944Z,104.00
2022-12-01T04:18:38.815Z,101.20
2022-12-01T04:21:45.665Z,102.10
2022-12-01T04:24:52.417Z,111.90
2022-12-01T04:27:59.684Z,120.80
2022-12-01T04:31:06.479Z,114.60
2022-12-01T04:34:13.217Z,123.70
2022-12-01T04:37:20.296Z,126.00
2022-12-01T04:40:27.157Z,123.70
2022-12-01T04:43:33.916Z,123.00
2022-12-01T04:46:41.210Z,123.80
2022-12-01T04:49:47.866Z,120.50
2022-12-01T04:52:55.079Z,130.80
2022-12-01T04:56:02.101Z,117.90
2022-12-01T04:59:08.540Z,127.60
2022-12-01T05:02:15.798Z,128.50
2022-12-01T05:05:22.721Z,130.40
2022-12-01T05:08:29.211Z,136.70
2022-12-01T05:11:36.140Z,136.10
2022-12-01T05:14:43.338Z,127.40
2022-12-01T05:17:49.810Z,126.50
2022-12-01T05:20:57.042Z,127.90
2022-12-01T05:24:03.621Z,123.80
2022-12-01T05:27:10.893Z,125.00
2022-12-01T05:30:18.135Z,123.70
2022-12-01T05:33:24.681Z,129.00
2022-12-01T05:36:31.832Z,117.30
2022-12-01T05:39:38.753Z,121.40
2022-12-01T05:42:45.294Z,129.00
2022-12-01T05:45:52.677Z,140.40
2022-12-01T05:48:59.506Z,130.50
2022-12-01T05:52:06.367Z,139.80
2022-12-01T05:55:13.265Z,127.30
2022-12-01T05:58:20.233Z,153.80
2022-12-01T06:01:27.188Z,148.00
2022-12-01T06:04:34.196Z,150.80
2022-12-01T06:07:41.214Z,162.30
2022-12-01T06:10:48.323Z,161.00
2022-12-01T06:13:55.478Z,151.80
2022-12-01T06:17:02.884Z,152.20
2022-12-01T06:20:09.912Z,142.50
2022-12-01T06:23:16.841Z,163.90
2022-12-01T06:26:23.668Z,153.30
2022-12-01T06:29:30.449Z,167.40
2022-12-01T06:32:37.390Z,161.90
2022-12-01T06:35:44.861Z,173.20
2022-12-01T06:38:52.123Z,162.40
2022-12-01T06:41:58.628Z,175.30
2022-12-01T06:45:05.996Z,165.80
2022-12-01T06:48:12.932Z,160.90
2022-12-01T06:51:20.046Z,177.50
2022-12-01T06:54:27.363Z,169.40
2022-12-01T06:57:35.053Z,172.00
2022-12-01T07:00:47.647Z,169.20
2022-12-01T07:03:45.992Z,174.40
2022-12-01T07:06:55.455Z,183.60
2022-12-01T07:10:02.933Z,169.20
2022-12-01T07:13:09.474Z,183.10
2022-12-01T07:16:16.920Z,177.30
2022-12-01T07:19:23.806Z,170.30
2022-12-01T07:22:32.775Z,163.20
2022-12-01T07:25:40.027Z,160.80
2022-12-01T07:28:47.304Z,156.50
2022-12-01T07:31:54.175Z,151.20
2022-12-01T07:35:01.088Z,159.00
2022-12-01T07:38:07.557Z,142.20
2022-12-01T07:41:14.460Z,140.90
2022-12-01T07:44:21.509Z,132.50
2022-12-01T07:47:28.320Z,136.80
2022-12-01T07:50:35.337Z,135.20
2022-12-01T07:53:42.290Z,127.90
2022-12-01T07:56:49.200Z,129.60
2022-12-01T07:59:56.222Z,123.80
2022-12-01T08:03:03.395Z,119.70
2022-12-01T08:06:10.662Z,118.40
2022-12-01T08:09:17.412Z,118.00
2022-12-01T08:12:24.251Z,109.30
2022-12-01T08:15:31.087Z,105.10
2022-12-01T08:18:37.873Z,114.20
2022-12-01T08:21:44.903Z,107.20
2022-12-01T08:24:52.205Z,101.50
2022-12-01T08:27:58.723Z,98.10
2022-12-01T08:31:06.018Z,102.10
2022-12-01T08:34:13.305Z,91.90
2022-12-01T08:37:19.844Z,97.70
2022-12-01T08:40:27.034Z,92.90
2022-12-01T08:43:56.491Z,81.90
2022-12-01T08:46:38.379Z,93.10
2022-12-01T08:49:45.466Z,98.30
2022-12-01T08:52:52.845Z,87.40
2022-12-01T08:55:59.415Z,85.70
2022-12-01T08:59:06.380Z,87.90
2022-12-01T09:02:12.867Z,86.00
2022-12-01T09:05:19.797Z,84.20
2022-12-01T09:08:26.927Z,89.80
2022-12-01T09:11:33.323Z,87.60
2022-12-01T09:14:40.496Z,85.30
2022-12-01T09:17:47.559Z,85.50
2022-12-01T09:20:54.039Z,80.40
2022-12-01T09:24:01.449Z,76.90
2022-12-01T09:27:08.520Z,71.90
2022-12-01T09:30:15.331Z,80.30
2022-12-01T09:33:22.070Z,74.00
2022-12-01T09:36:28.976Z,77.00
2022-12-01T09:39:35.441Z,73.00
2022-12-01T09:42:42.321Z,73.70
2022-12-01T09:45:49.103Z,81.90
2022-12-01T09:48:55.911Z,75.20
2022-12-01T09:52:02.769Z,71.50
2022-12-01T09:55:10.212Z,94.80
2022-12-01T09:58:17.064Z,78.70
2022-12-01T10:01:27.257Z,78.10
2022-12-01T10:04:34.145Z,83.40
2022-12-01T10:07:41.052Z,83.80
2022-12-01T10:10:47.484Z,87.60
2022-12-01T10:13:54.457Z,81.50
2022-12-01T10:17:01.017Z,87.70
2022-12-01T10:20:08.306Z,87.80
2022-12-01T10:23:15.607Z,82.80
2022-12-01T10:26:22.199Z,89.20
2022-12-01T10:29:29.345Z,89.50
2022-12-01T10:32:36.358Z,91.70
2022-12-01T10:35:42.949Z,95.20
2022-12-01T10:38:50.177Z,92.40
2022-12-01T10:41:56.829Z,86.40
2022-12-01T10:45:03.375Z,90.30
2022-12-01T10:48:10.681Z,96.70
2022-12-01T10:51:17.160Z,86.30
2022-12-01T10:54:24.430Z,101.60
2022-12-01T10:57:31.269Z,84.10
2022-12-01T11:03:42.415Z,88.10
2022-12-01T11:06:49.453Z,84.80
2022-12-01T11:09:56.014Z,89.90
2022-12-01T11:13:02.973Z,74.60
2022-12-01T11:16:09.658Z,90.90
2022-12-01T11:19:19.362Z,82.80
2022-12-01T11:22:17.954Z,90.80
2022-12-01T11:25:24.786Z,86.70
2022-12-01T11:28:31.726Z,95.00
2022-12-01T11:31:38.352Z,94.20
2022-12-01T11:34:45.653Z,96.90
2022-12-01T11:38:21.159Z,97.80
2022-12-01T11:40:56.624Z,98.10
2022-12-01T11:44:09.159Z,100.70
2022-12-01T11:47:22.821Z,101.30
2022-12-01T11:50:12.547Z,110.40
2022-12-01T11:56:04.267Z,109.60
2022-12-01T11:59:13.360Z,108.60
2022-12-01T12:02:20.976Z,98.80
2022-12-01T12:05:28.091Z,99.30
2022-12-01T12:08:36.039Z,105.10
2022-12-01T12:11:43.349Z,109.20
2022-12-01T12:14:50.858Z,103.80
2022-12-01T12:17:58.653Z,110.00
2022-12-01T12:21:07.903Z,99.60
2022-12-01T12:24:15.492Z,108.70
2022-12-01T12:27:23.534Z,106.20
2022-12-01T12:30:31.521Z,105.50
2022-12-01T12:33:39.304Z,115.00
2022-12-01T12:36:46.854Z,102.40
2022-12-01T12:39:54.755Z,101.70
2022-12-01T12:43:02.184Z,115.10
2022-12-01T12:46:09.560Z,111.80
2022-12-01T12:49:20.882Z,120.40
2022-12-01T12:52:17.902Z,112.20
2022-12-01T12:55:18.450Z,111.00
2022-12-01T12:58:26.204Z,115.30
2022-12-01T13:01:33.602Z,117.60
2022-12-01T13:04:41.653Z,114.10
2022-12-01T13:07:49.164Z,107.70
2022-12-01T13:10:56.732Z,107.80
2022-12-01T13:14:04.571Z,108.50
2022-12-01T13:17:12.044Z,97.40
2022-12-01T13:20:19.501Z,113.20
2022-12-01T13:23:27.285Z,97.20
2022-12-01T13:26:35.244Z,93.10
2022-12-01T13:29:44.254Z,95.30
2022-12-01T13:32:52.127Z,99.60
2022-12-01T13:36:29.788Z,100.40
2022-12-01T13:39:04.257Z,110.10
2022-12-01T13:42:11.888Z,119.60
2022-12-01T13:45:19.206Z,111.10
2022-12-01T13:48:27.487Z,123.60
2022-12-01T13:51:35.359Z,117.00
2022-12-01T13:54:43.077Z,128.70
2022-12-01T13:57:50.665Z,127.70
2022-12-01T14:00:58.090Z,128.70
2022-12-01T14:04:05.977Z,128.20
2022-12-01T14:07:13.211Z,125.30
2022-12-01T14:10:20.826Z,121.30
2022-12-01T14:13:28.666Z,125.90
2022-12-01T14:16:35.946Z,120.30
2022-12-01T14:19:38.193Z,132.10
2022-12-01T14:22:45.869Z,134.90
2022-12-01T14:25:53.773Z,133.10
2022-12-01T14:29:01.716Z,134.20
2022-12-01T14:32:09.336Z,127.70
2022-12-01T14:35:17.000Z,125.10
2022-12-01T14:38:24.711Z,120.00
2022-12-01T14:41:32.103Z,121.50
2022-12-01T14:44:39.755Z,129.80
2022-12-01T14:47:47.563Z,126.10
2022-12-01T14:50:55.627Z,117.50
2022-12-01T14:54:03.189Z,119.70
2022-12-01T14:57:16.404Z,131.00
2022-12-01T15:00:14.195Z,131.80
2022-12-01T15:03:25.393Z,126.60
2022-12-01T15:06:24.602Z,134.60
2022-12-01T15:09:34.475Z,133.80
2022-12-01T15:12:33.029Z,135.10
2022-12-01T15:15:42.791Z,131.50
2022-12-01T15:18:51.723Z,141.20
2022-12-01T15:21:59.811Z,147.20
2022-12-01T15:25:08.087Z,142.20
2022-12-01T15:28:15.984Z,146.40
2022-12-01T15:31:24.748Z,173.20
2022-12-01T15:34:33.015Z,166.10
2022-12-01T15:37:40.788Z,168.60
2022-12-01T15:43:54.877Z,196.70
2022-12-01T15:47:02.717Z,193.70
2022-12-01T15:50:11.277Z,192.70
2022-12-01T15:53:19.328Z,182.50
2022-12-01T15:56:27.603Z,186.90
2022-12-01T15:59:35.419Z,189.50
2022-12-01T16:02:43.332Z,171.60
2022-12-01T16:05:51.538Z,178.70
2022-12-01T16:09:00.121Z,160.50
2022-12-01T16:12:08.018Z,187.90
2022-12-01T16:15:16.473Z,178.40
2022-12-01T16:18:24.211Z,181.10
2022-12-01T16:21:32.883Z,177.50
2022-12-01T16:24:41.162Z,191.00
2022-12-01T16:27:49.476Z,182.70
2022-12-01T16:30:58.374Z,203.20
2022-12-01T16:34:24.551Z,210.20
2022-12-01T16:37:12.289Z,205.80
2022-12-01T16:40:20.952Z,213.80
2022-12-01T16:43:28.875Z,203.80
2022-12-01T16:46:37.841Z,203.90
2022-12-01T16:49:46.244Z,210.50
2022-12-01T16:52:54.565Z,207.30
2022-12-01T16:56:03.473Z,189.70
2022-12-01T16:59:11.521Z,215.50
2022-12-01T17:02:19.639Z,228.40
2022-12-01T17:05:27.934Z,222.30
2022-12-01T17:08:36.161Z,233.40
2022-12-01T17:11:44.325Z,243.70
2022-12-01T17:14:52.999Z,247.50
2022-12-01T17:18:01.030Z,235.90
2022-12-01T17:21:09.093Z,240.40
2022-12-01T17:24:19.186Z,242.90
2022-12-01T17:27:27.630Z,226.80
2022-12-01T17:30:35.457Z,235.10
2022-12-01T17:33:43.274Z,230.90
2022-12-01T17:36:51.714Z,220.70
2022-12-01T17:39:59.486Z,223.80
2022-12-01T17:43:07.986Z,215.60
2022-12-01T17:46:16.629Z,224.00
2022-12-01T17:49:24.497Z,224.40
2022-12-01T17:52:32.913Z,194.20
2022-12-01T17:55:41.736Z,207.60
2022-12-01T17:58:50.259Z,198.90
2022-12-01T18:01:58.767Z,182.40
2022-12-01T18:05:06.485Z,204.30
2022-12-01T18:08:14.520Z,198.20
2022-12-01T18:11:22.597Z,203.20
2022-12-01T18:14:30.291Z,204.90
2022-12-01T18:17:39.090Z,195.30
2022-12-01T18:20:47.272Z,199.20
2022-12-01T18:23:55.013Z,204.00
2022-12-01T18:27:03.572Z,213.90
2022-12-01T18:30:11.814Z,194.20
2022-12-01T18:33:19.496Z,200.50
2022-12-01T18:36:27.713Z,214.10
2022-12-01T18:39:35.772Z,211.00
2022-12-01T18:42:43.744Z,220.10
2022-12-01T18:45:52.005Z,206.80
2022-12-01T18:49:00.029Z,206.90
2022-12-01T18:52:08.055Z,219.00
2022-12-01T18:55:16.468Z,221.00
2022-12-01T18:58:24.358Z,216.50
2022-12-01T19:01:32.545Z,220.10
2022-12-01T19:04:40.777Z,229.50
2022-12-01T19:07:49.318Z,224.70
2022-12-01T19:10:57.337Z,217.90
2022-12-01T19:14:06.257Z,224.40
2022-12-01T19:17:14.448Z,231.70
2022-12-01T19:20:22.950Z,205.50
2022-12-01T19:23:31.218Z,245.80
2022-12-01T19:26:39.729Z,249.00
2022-12-01T19:29:47.938Z,267.00
2022-12-01T19:32:56.240Z,248.00
2022-12-01T19:36:05.359Z,266.10
2022-12-01T19:39:15.113Z,260.30
2022-12-01T19:42:24.096Z,281.00
2022-12-01T19:45:33.465Z,282.30
2022-12-01T19:48:41.774Z,274.90
2022-12-01T19:51:52.869Z,269.10
2022-12-01T19:55:01.311Z,268.50
2022-12-01T19:58:09.071Z,253.00
2022-12-01T20:01:17.850Z,261.40
2022-12-01T20:04:26.415Z,242.90
2022-12-01T20:07:34.674Z,236.20
2022-12-01T20:10:42.894Z,249.10
2022-12-01T20:13:50.983Z,273.90
2022-12-01T20:17:00.319Z,235.80
2022-12-01T20:20:08.414Z,236.10
2022-12-01T20:23:16.615Z,253.60
2022-12-01T20:26:30.245Z,253.40
2022-12-01T20:29:27.708Z,243.20
2022-12-01T20:32:35.957Z,264.30
2022-12-01T20:35:44.075Z,278.40
2022-12-01T20:38:52.246Z,267.20
2022-12-01T20:41:59.977Z,264.30
2022-12-01T20:45:08.640Z,255.60
2022-12-01T20:48:16.573Z,245.10
2022-12-01T20:51:25.037Z,254.40
2022-12-01T20:54:33.597Z,230.40
2022-12-01T20:57:41.320Z,248.20
2022-12-01T21:00:50.046Z,247.40
2022-12-01T21:03:58.486Z,226.60
2022-12-01T21:07:07.500Z,232.50
2022-12-01T21:10:19.780Z,223.00
2022-12-01T21:13:17.819Z,237.30
2022-12-01T21:16:27.196Z,234.50
2022-12-01T21:19:35.424Z,234.50
2022-12-01T21:22:44.754Z,239.40
2022-12-01T21:25:52.503Z,244.00
2022-12-01T21:29:01.162Z,232.30
2022-12-01T21:32:09.446Z,215.70
2022-12-01T21:35:17.678Z,223.00
2022-12-01T21:38:26.408Z,232.10
2022-12-01T21:41:34.078Z,198.30
2022-12-01T21:44:42.793Z,227.10
2022-12-01T21:47:51.326Z,202.00
2022-12-01T21:50:58.972Z,205.20
2022-12-01T21:54:07.671Z,221.50
2022-12-01T21:57:15.848Z,229.60
2022-12-01T22:00:24.431Z,195.80
2022-12-01T22:03:32.352Z,205.40
2022-12-01T22:06:40.450Z,212.80
2022-12-01T22:09:49.282Z,213.20
2022-12-01T22:12:57.304Z,210.00
2022-12-01T22:16:05.731Z,211.10
2022-12-01T22:19:14.325Z,213.50
2022-12-01T22:22:22.278Z,221.20
2022-12-01T22:25:30.385Z,227.30
2022-12-01T22:28:38.165Z,218.60
2022-12-01T22:31:46.758Z,229.60
2022-12-01T22:34:55.236Z,227.40
2022-12-01T22:38:02.959Z,230.50
2022-12-01T22:41:11.643Z,230.90
2022-12-01T22:44:20.114Z,240.10
2022-12-01T22:47:28.259Z,240.30
2022-12-01T22:50:36.830Z,249.40
2022-12-01T22:53:45.210Z,234.90
2022-12-01T22:56:53.490Z,246.30
2022-12-01T23:00:01.858Z,263.90
2022-12-01T23:03:09.770Z,262.40
2022-12-01T23:06:18.302Z,282.50
2022-12-01T23:09:26.672Z,255.10
2022-12-01T23:12:34.446Z,259.00
2022-12-01T23:15:43.214Z,298.80
2022-12-01T23:18:51.334Z,282.10
2022-12-01T23:21:59.569Z,292.10
2022-12-01T23:25:07.624Z,290.40
2022-12-01T23:28:15.732Z,291.20
2022-12-01T23:31:23.950Z,291.40
2022-12-01T23:34:31.736Z,298.70
2022-12-01T23:37:40.155Z,298.30
2022-12-01T23:40:48.419Z,304.00
2022-12-01T23:43:56.306Z,320.90
2022-12-01T23:47:04.941Z,322.60
2022-12-01T23:50:12.806Z,317.10
2022-12-01T23:53:20.910Z,330.40
2022-12-01T23:56:29.239Z,317.70
2022-12-01T23:59:37.209Z,342.50
